createdAt,value
2018-12-16T00:00:38.590Z,19.05
2018-12-16T00:03:07.701Z,20.25
2018-12-16T00:05:37.349Z,21.85
2018-12-16T00:08:06.678Z,19.10
2018-12-16T00:10:35.840Z,18.17
2018-12-16T00:13:04.780Z,18.02
2018-12-16T00:15:34.137Z,18.92
2018-12-16T00:18:03.462Z,19.87
2018-12-16T00:20:32.859Z,20.27
2018-12-16T00:23:02.213Z,19.52
2018-12-16T00:25:31.342Z,21.10
2018-12-16T00:28:01.074Z,19.00
2018-12-16T00:30:30.383Z,19.27
2018-12-16T00:32:59.528Z,18.62
2018-12-16T00:35:28.754Z,19.50
2018-12-16T00:37:57.907Z,19.52
2018-12-16T00:40:27.158Z,18.02
2018-12-16T00:42:56.818Z,18.67
2018-12-16T00:45:26.219Z,17.32
2018-12-16T00:47:55.639Z,18.02
2018-12-16T00:50:24.811Z,18.32
2018-12-16T00:52:54.443Z,18.48
2018-12-16T00:55:23.262Z,17.20
2018-12-16T00:57:53.170Z,17.67
2018-12-16T01:00:23.180Z,17.57
2018-12-16T01:02:52.655Z,18.42
2018-12-16T01:05:22.270Z,18.35
2018-12-16T01:07:51.851Z,18.05
2018-12-16T01:10:21.130Z,16.42
2018-12-16T01:12:50.339Z,18.32
2018-12-16T01:15:19.602Z,18.57
2018-12-16T01:17:49.062Z,16.73
2018-12-16T01:20:18.206Z,18.70
2018-12-16T01:22:47.098Z,17.77
2018-12-16T01:25:16.654Z,17.98
2018-12-16T01:27:45.810Z,17.12
2018-12-16T01:30:14.834Z,15.90
2018-12-16T01:32:44.161Z,17.55
2018-12-16T01:35:13.497Z,17.35
2018-12-16T01:37:42.648Z,16.52
2018-12-16T01:40:12.193Z,17.48
2018-12-16T01:42:41.460Z,18.57
2018-12-16T01:45:10.787Z,17.10
2018-12-16T01:47:40.439Z,15.30
2018-12-16T01:50:10.161Z,17.20
2018-12-16T01:52:41.490Z,16.20
2018-12-16T01:55:10.836Z,15.72
2018-12-16T01:57:40.048Z,18.00
2018-12-16T02:00:10.778Z,16.95
2018-12-16T02:02:39.963Z,16.20
2018-12-16T02:05:09.044Z,15.65
2018-12-16T02:07:38.359Z,18.32
2018-12-16T02:10:08.587Z,17.45
2018-12-16T02:12:37.983Z,18.55
2018-12-16T02:15:07.472Z,16.90
2018-12-16T02:17:36.718Z,17.77
2018-12-16T02:20:06.522Z,18.40
2018-12-16T02:22:35.841Z,16.82
2018-12-16T02:25:07.042Z,17.85
2018-12-16T02:27:36.394Z,17.57
2018-12-16T02:30:05.671Z,19.25
2018-12-16T02:32:34.855Z,18.37
2018-12-16T02:35:04.568Z,18.45
2018-12-16T02:37:33.800Z,17.23
2018-12-16T02:40:03.710Z,17.48
2018-12-16T02:42:33.200Z,17.40
2018-12-16T02:45:02.534Z,17.48
2018-12-16T02:47:31.641Z,17.62
2018-12-16T02:50:00.811Z,17.87
2018-12-16T02:52:30.044Z,18.67
2018-12-16T02:54:59.176Z,17.87
2018-12-16T02:57:28.153Z,16.82
2018-12-16T02:59:57.401Z,19.00
2018-12-16T03:02:26.539Z,18.65
2018-12-16T03:04:56.053Z,17.02
2018-12-16T03:07:25.373Z,15.83
2018-12-16T03:09:54.715Z,17.45
2018-12-16T03:12:23.785Z,16.00
2018-12-16T03:14:53.080Z,16.73
2018-12-16T03:17:22.351Z,15.88
2018-12-16T03:19:51.353Z,16.12
2018-12-16T03:22:20.391Z,15.95
2018-12-16T03:24:49.751Z,16.52
2018-12-16T03:27:19.460Z,17.73
2018-12-16T03:29:48.607Z,15.13
2018-12-16T03:32:17.491Z,17.60
2018-12-16T03:34:47.054Z,16.20
2018-12-16T03:37:17.117Z,17.48
2018-12-16T03:39:46.135Z,16.75
2018-12-16T03:42:15.404Z,16.93
2018-12-16T03:44:44.594Z,16.32
2018-12-16T03:47:14.166Z,17.30
2018-12-16T03:49:43.721Z,15.95
2018-12-16T03:52:15.062Z,16.20
2018-12-16T03:54:44.282Z,15.18
2018-12-16T03:57:13.564Z,17.23
2018-12-16T03:59:43.224Z,17.85
2018-12-16T04:02:12.445Z,19.37
2018-12-16T04:04:41.587Z,19.12
2018-12-16T04:07:10.826Z,18.82
2018-12-16T04:09:40.097Z,20.27
2018-12-16T04:12:09.381Z,20.23
2018-12-16T04:14:38.680Z,18.55
2018-12-16T04:17:07.913Z,22.13
2018-12-16T04:19:37.090Z,21.73
2018-12-16T04:22:06.297Z,20.75
2018-12-16T04:24:35.481Z,21.40
2018-12-16T04:27:04.682Z,21.62
2018-12-16T04:29:33.495Z,22.80
2018-12-16T04:32:02.699Z,24.12
2018-12-16T04:34:31.864Z,23.27
2018-12-16T04:37:01.594Z,24.45
2018-12-16T04:39:30.636Z,24.23
2018-12-16T04:41:59.939Z,24.35
2018-12-16T04:44:29.983Z,23.30
2018-12-16T04:46:59.582Z,25.15
2018-12-16T04:49:28.876Z,24.37
2018-12-16T04:51:58.173Z,24.47
2018-12-16T04:54:30.975Z,24.20
2018-12-16T04:57:00.476Z,28.17
2018-12-16T04:59:29.571Z,25.85
2018-12-16T05:01:58.774Z,25.77
2018-12-16T05:04:27.598Z,24.77
2018-12-16T05:06:56.783Z,25.23
2018-12-16T05:09:26.239Z,23.27
2018-12-16T05:11:55.436Z,20.90
2018-12-16T05:14:25.710Z,25.65
2018-12-16T05:16:54.743Z,25.23
2018-12-16T05:19:24.281Z,25.55
2018-12-16T05:21:53.755Z,24.43
2018-12-16T05:24:23.204Z,23.98
2018-12-16T05:26:52.458Z,22.20
2018-12-16T05:29:21.675Z,23.80
2018-12-16T05:31:51.042Z,24.12
2018-12-16T05:34:20.123Z,22.75
2018-12-16T05:36:49.695Z,23.57
2018-12-16T05:39:18.762Z,27.48
2018-12-16T05:41:47.923Z,24.30
2018-12-16T05:44:17.278Z,25.50
2018-12-16T05:46:46.654Z,23.55
2018-12-16T05:49:15.697Z,21.55
2018-12-16T05:51:44.812Z,24.40
2018-12-16T05:54:14.165Z,23.02
2018-12-16T05:56:43.374Z,23.05
2018-12-16T05:59:13.862Z,33.92
2018-12-16T06:01:43.068Z,24.90
2018-12-16T06:04:14.586Z,22.27
2018-12-16T06:06:44.102Z,22.45
2018-12-16T06:09:13.286Z,21.62
2018-12-16T06:11:42.486Z,22.58
2018-12-16T06:14:11.719Z,22.70
2018-12-16T06:16:40.876Z,21.55
2018-12-16T06:19:10.775Z,20.17
2018-12-16T06:21:40.028Z,23.30
2018-12-16T06:24:09.162Z,22.20
2018-12-16T06:26:38.653Z,22.15
2018-12-16T06:29:07.791Z,21.70
2018-12-16T06:31:36.911Z,21.68
2018-12-16T06:34:06.010Z,22.35
2018-12-16T06:36:35.227Z,22.15
2018-12-16T06:39:06.367Z,23.77
2018-12-16T06:41:35.710Z,21.42
2018-12-16T06:44:04.861Z,22.42
2018-12-16T06:46:34.533Z,23.02
2018-12-16T06:49:04.012Z,22.05
2018-12-16T06:51:33.346Z,23.67
2018-12-16T06:54:02.856Z,24.25
2018-12-16T06:56:32.311Z,24.37
2018-12-16T06:59:01.459Z,23.45
2018-12-16T07:01:31.032Z,23.12
2018-12-16T07:04:00.297Z,23.75
2018-12-16T07:06:29.550Z,25.12
2018-12-16T07:08:58.921Z,24.37
2018-12-16T07:11:28.325Z,24.20
2018-12-16T07:13:57.532Z,22.35
2018-12-16T07:16:27.335Z,24.30
2018-12-16T07:18:57.058Z,25.50
2018-12-16T07:21:26.332Z,24.40
2018-12-16T07:23:55.763Z,23.95
2018-12-16T07:26:25.007Z,26.23
2018-12-16T07:28:54.369Z,27.60
2018-12-16T07:31:23.431Z,27.27
2018-12-16T07:33:53.075Z,27.87
2018-12-16T07:36:22.543Z,28.77
2018-12-16T07:38:52.047Z,30.75
2018-12-16T07:41:20.990Z,33.10
2018-12-16T07:43:50.162Z,30.17
2018-12-16T07:46:19.296Z,29.60
2018-12-16T07:48:48.724Z,34.18
2018-12-16T07:51:17.966Z,31.20
2018-12-16T07:53:47.178Z,29.72
2018-12-16T07:56:16.413Z,29.10
2018-12-16T07:58:45.745Z,30.65
2018-12-16T08:01:15.013Z,29.95
2018-12-16T08:03:43.838Z,31.25
2018-12-16T08:06:13.221Z,28.70
2018-12-16T08:08:42.461Z,30.02
2018-12-16T08:11:12.120Z,31.27
2018-12-16T08:13:41.619Z,29.63
2018-12-16T08:16:10.631Z,27.75
2018-12-16T08:18:39.535Z,29.48
2018-12-16T08:21:09.076Z,29.80
2018-12-16T08:23:38.787Z,26.07
2018-12-16T08:26:08.027Z,26.80
2018-12-16T08:28:37.117Z,26.35
2018-12-16T08:31:07.022Z,26.33
2018-12-16T08:33:37.398Z,25.48
2018-12-16T08:36:06.550Z,26.52
2018-12-16T08:38:35.722Z,26.42
2018-12-16T08:41:05.363Z,24.05
2018-12-16T08:43:34.638Z,26.10
2018-12-16T08:46:03.650Z,25.15
2018-12-16T08:48:33.137Z,24.10
2018-12-16T08:51:03.431Z,23.80
2018-12-16T08:53:32.673Z,23.50
2018-12-16T08:56:01.878Z,21.50
2018-12-16T08:58:31.471Z,21.73
2018-12-16T09:01:00.795Z,20.85
2018-12-16T09:03:30.318Z,20.35
2018-12-16T09:05:59.583Z,20.27
2018-12-16T09:08:29.424Z,20.35
2018-12-16T09:10:59.478Z,22.65
2018-12-16T09:13:28.728Z,20.45
2018-12-16T09:15:57.859Z,21.62
2018-12-16T09:18:26.991Z,19.70
2018-12-16T09:20:56.402Z,19.70
2018-12-16T09:23:25.716Z,19.83
2018-12-16T09:25:54.847Z,19.92
2018-12-16T09:28:24.092Z,19.83
2018-12-16T09:30:57.939Z,20.57
2018-12-16T09:33:24.557Z,18.00
2018-12-16T09:35:54.225Z,19.47
2018-12-16T09:38:23.484Z,17.43
2018-12-16T09:40:52.650Z,16.70
2018-12-16T09:43:21.959Z,16.70
2018-12-16T09:45:51.165Z,18.57
2018-12-16T09:48:20.519Z,18.57
2018-12-16T09:50:49.846Z,18.07
2018-12-16T09:53:18.855Z,16.70
2018-12-16T09:55:48.152Z,16.80
2018-12-16T09:58:16.924Z,18.53
2018-12-16T10:00:46.358Z,18.83
2018-12-16T10:03:16.148Z,16.30
2018-12-16T10:05:45.651Z,14.50
2018-12-16T10:08:15.089Z,15.57
2018-12-16T10:10:44.285Z,14.77
2018-12-16T10:13:13.680Z,15.30
2018-12-16T10:15:43.014Z,15.83
2018-12-16T10:18:12.342Z,14.13
2018-12-16T10:20:41.491Z,14.37
2018-12-16T10:23:10.562Z,13.63
2018-12-16T10:25:41.160Z,16.27
2018-12-16T10:28:10.251Z,16.17
2018-12-16T10:30:40.019Z,15.40
2018-12-16T10:33:09.246Z,14.37
2018-12-16T10:35:38.431Z,16.00
2018-12-16T10:38:07.918Z,15.33
2018-12-16T10:40:37.054Z,16.60
2018-12-16T10:43:06.178Z,18.20
2018-12-16T10:45:35.434Z,15.90
2018-12-16T10:48:04.779Z,17.43
2018-12-16T10:50:34.303Z,14.13
2018-12-16T10:53:03.660Z,15.37
2018-12-16T10:55:32.820Z,14.03
2018-12-16T10:58:02.325Z,13.90
2018-12-16T11:01:38.345Z,13.83
2018-12-16T11:04:07.607Z,13.37
2018-12-16T11:06:36.971Z,12.83
2018-12-16T11:09:06.463Z,13.90
2018-12-16T11:11:35.577Z,12.63
2018-12-16T11:14:04.925Z,11.43
2018-12-16T11:16:34.093Z,13.43
2018-12-16T11:19:03.286Z,13.50
2018-12-16T11:21:32.961Z,12.13
2018-12-16T11:24:02.089Z,12.90
2018-12-16T11:26:31.654Z,13.43
2018-12-16T11:29:01.077Z,12.10
2018-12-16T11:31:30.383Z,12.17
2018-12-16T11:34:00.063Z,11.77
2018-12-16T11:36:29.396Z,11.00
2018-12-16T11:38:58.388Z,13.87
2018-12-16T11:41:27.770Z,16.80
2018-12-16T11:43:57.070Z,12.67
2018-12-16T11:46:26.258Z,16.63
2018-12-16T11:48:55.507Z,11.93
2018-12-16T11:51:24.632Z,12.07
2018-12-16T11:53:54.098Z,10.60
2018-12-16T11:56:23.065Z,12.27
2018-12-16T11:58:53.091Z,12.70
2018-12-16T12:01:22.391Z,10.40
2018-12-16T12:03:51.870Z,11.93
2018-12-16T12:06:21.195Z,14.07
2018-12-16T12:08:50.531Z,10.70
2018-12-16T12:11:19.782Z,33.10
2018-12-16T12:13:49.282Z,19.03
2018-12-16T12:16:18.640Z,10.13
2018-12-16T12:21:38.310Z,7.27
2018-12-16T12:24:08.180Z,6.40
2018-12-16T12:26:37.693Z,6.00
2018-12-16T12:29:07.262Z,4.50
2018-12-16T12:31:36.371Z,2.03
2018-12-16T12:34:05.612Z,2.83
2018-12-16T12:36:35.283Z,3.07
2018-12-16T12:39:06.219Z,1.30
2018-12-16T12:41:35.587Z,1.40
2018-12-16T12:44:04.707Z,1.40
2018-12-16T12:46:33.795Z,2.53
2018-12-16T12:49:02.924Z,2.63
2018-12-16T12:51:32.141Z,3.30
2018-12-16T12:54:01.264Z,2.80
2018-12-16T12:56:30.255Z,3.07
2018-12-16T12:58:59.480Z,2.50
2018-12-16T13:01:28.730Z,2.13
2018-12-16T13:03:57.986Z,0.90
2018-12-16T13:06:27.397Z,1.37
2018-12-16T13:08:56.195Z,1.37
2018-12-16T13:11:25.431Z,2.07
2018-12-16T13:13:54.731Z,3.70
2018-12-16T13:16:24.085Z,2.00
2018-12-16T13:18:53.355Z,6.40
2018-12-16T13:21:22.547Z,13.20
2018-12-16T13:23:51.807Z,18.67
2018-12-16T13:26:21.115Z,19.73
2018-12-16T13:28:50.506Z,21.23
2018-12-16T13:31:19.731Z,22.00
2018-12-16T13:33:48.811Z,21.37
2018-12-16T13:36:18.093Z,22.47
2018-12-16T13:38:47.324Z,20.33
2018-12-16T13:41:16.770Z,24.10
2018-12-16T13:43:45.641Z,22.77
2018-12-16T13:46:15.004Z,22.57
2018-12-16T13:48:44.365Z,23.63
2018-12-16T13:51:13.539Z,21.93
2018-12-16T13:53:43.160Z,23.20
2018-12-16T13:56:12.538Z,23.20
2018-12-16T13:58:41.951Z,22.37
2018-12-16T14:01:11.654Z,22.13
2018-12-16T14:03:40.881Z,21.93
2018-12-16T14:06:10.271Z,23.10
2018-12-16T14:08:39.179Z,22.20
2018-12-16T14:11:08.470Z,21.67
2018-12-16T14:13:37.546Z,23.10
2018-12-16T14:16:06.549Z,23.83
2018-12-16T14:18:36.332Z,25.93
2018-12-16T14:21:06.031Z,25.07
2018-12-16T14:23:35.314Z,25.90
2018-12-16T14:26:04.605Z,23.47
2018-12-16T14:28:33.951Z,26.67
2018-12-16T14:31:02.945Z,24.33
2018-12-16T14:33:32.179Z,28.03
2018-12-16T14:36:01.055Z,26.13
2018-12-16T14:38:31.023Z,27.63
2018-12-16T14:41:00.155Z,27.33
2018-12-16T14:43:29.463Z,25.33
2018-12-16T14:45:58.677Z,26.20
2018-12-16T14:48:27.632Z,25.67
2018-12-16T14:50:56.684Z,24.40
2018-12-16T14:53:25.904Z,25.80
2018-12-16T14:55:55.635Z,26.77
2018-12-16T14:58:24.917Z,26.67
2018-12-16T15:01:00.827Z,27.53
2018-12-16T15:03:30.350Z,25.53
2018-12-16T15:05:59.582Z,25.50
2018-12-16T15:08:28.723Z,26.57
2018-12-16T15:10:57.829Z,25.33
2018-12-16T15:13:27.126Z,28.30
2018-12-16T15:15:56.304Z,27.13
2018-12-16T15:18:25.526Z,29.43
2018-12-16T15:20:54.898Z,28.03
2018-12-16T15:23:24.362Z,26.47
2018-12-16T15:25:53.574Z,26.60
2018-12-16T15:28:22.970Z,29.77
2018-12-16T15:30:52.361Z,27.87
2018-12-16T15:33:21.356Z,28.67
2018-12-16T15:35:50.368Z,26.87
2018-12-16T15:38:19.692Z,30.33
2018-12-16T15:40:48.791Z,27.03
2018-12-16T15:43:18.039Z,29.93
2018-12-16T15:45:47.143Z,28.27
2018-12-16T15:48:16.380Z,30.87
2018-12-16T15:50:45.431Z,29.67
2018-12-16T15:53:14.907Z,30.70
2018-12-16T15:55:44.030Z,32.10
2018-12-16T15:58:13.612Z,30.07
2018-12-16T16:00:42.731Z,33.07
2018-12-16T16:03:12.210Z,33.03
2018-12-16T16:05:41.599Z,32.47
2018-12-16T16:08:16.465Z,31.23
2018-12-16T16:10:41.730Z,31.10
2018-12-16T16:13:11.458Z,31.13
2018-12-16T16:15:40.626Z,30.37
2018-12-16T16:18:09.911Z,32.30
2018-12-16T16:20:39.373Z,33.73
2018-12-16T16:23:08.840Z,34.33
2018-12-16T16:25:37.981Z,30.77
2018-12-16T16:28:07.732Z,31.43
2018-12-16T16:30:37.055Z,30.70
2018-12-16T16:33:06.286Z,26.57
2018-12-16T16:35:35.455Z,26.50
2018-12-16T16:38:04.979Z,25.53
2018-12-16T16:40:34.315Z,24.20
2018-12-16T16:43:03.688Z,25.60
2018-12-16T16:45:32.831Z,20.73
2018-12-16T16:48:02.300Z,20.80
2018-12-16T16:50:31.749Z,19.03
2018-12-16T16:53:01.092Z,19.97
2018-12-16T16:55:30.175Z,17.93
2018-12-16T16:57:59.346Z,16.80
2018-12-16T17:00:28.591Z,19.27
2018-12-16T17:02:57.884Z,18.77
2018-12-16T17:05:27.287Z,18.80
2018-12-16T17:07:56.463Z,17.33
2018-12-16T17:10:26.234Z,17.47
2018-12-16T17:12:55.550Z,18.17
2018-12-16T17:15:24.848Z,17.90
2018-12-16T17:17:54.032Z,17.97
2018-12-16T17:20:23.270Z,18.10
2018-12-16T17:22:52.233Z,20.37
2018-12-16T17:25:21.935Z,20.00
2018-12-16T17:27:51.214Z,19.87
2018-12-16T17:30:20.775Z,19.12
2018-12-16T17:32:50.011Z,18.32
2018-12-16T17:35:19.305Z,16.02
2018-12-16T17:37:48.667Z,15.38
2018-12-16T17:40:18.127Z,14.30
2018-12-16T17:42:47.474Z,13.30
2018-12-16T17:45:16.865Z,12.05
2018-12-16T17:47:46.050Z,11.18
2018-12-16T17:50:15.729Z,12.98
2018-12-16T17:52:45.451Z,11.60
2018-12-16T17:55:14.783Z,10.68
2018-12-16T17:57:44.032Z,11.68
2018-12-16T18:00:14.792Z,11.50
2018-12-16T18:02:44.038Z,12.88
2018-12-16T18:05:13.374Z,13.65
2018-12-16T18:07:42.479Z,14.93
2018-12-16T18:10:11.719Z,18.27
2018-12-16T18:12:41.352Z,21.70
2018-12-16T18:15:10.635Z,26.50
2018-12-16T18:17:40.034Z,28.73
2018-12-16T18:20:09.770Z,31.80
2018-12-16T18:22:39.503Z,24.60
2018-12-16T18:25:08.834Z,29.72
2018-12-16T18:27:37.726Z,34.75
2018-12-16T18:30:08.248Z,28.07
2018-12-16T18:32:37.476Z,31.40
2018-12-16T18:35:07.206Z,29.57
2018-12-16T18:37:36.571Z,30.72
2018-12-16T18:40:06.636Z,36.53
2018-12-16T18:42:35.754Z,36.55
2018-12-16T18:45:05.515Z,35.55
2018-12-16T18:47:34.618Z,33.85
2018-12-16T18:50:04.142Z,36.65
2018-12-16T18:52:33.264Z,36.60
2018-12-16T18:55:02.825Z,29.18
2018-12-16T18:57:32.135Z,52.75
2018-12-16T19:00:01.479Z,40.52
2018-12-16T19:02:30.820Z,32.38
2018-12-16T19:05:00.431Z,28.35
2018-12-16T19:07:29.747Z,23.45
2018-12-16T19:09:59.191Z,25.15
2018-12-16T19:12:28.653Z,28.52
2018-12-16T19:14:58.324Z,24.12
2018-12-16T19:17:27.603Z,23.27
2018-12-16T19:19:56.800Z,33.05
2018-12-16T19:22:26.015Z,52.08
2018-12-16T19:24:55.125Z,55.67
2018-12-16T19:27:24.396Z,48.87
2018-12-16T19:29:53.477Z,35.25
2018-12-16T19:32:22.963Z,30.68
2018-12-16T19:34:52.264Z,25.05
2018-12-16T19:37:22.629Z,24.65
2018-12-16T19:39:51.914Z,24.35
2018-12-16T19:42:21.658Z,20.02
2018-12-16T19:44:50.919Z,20.52
2018-12-16T19:47:20.165Z,17.73
2018-12-16T19:49:49.401Z,25.50
2018-12-16T19:52:18.779Z,24.57
2018-12-16T19:54:48.344Z,22.00
2018-12-16T19:57:17.574Z,23.12
2018-12-16T19:59:46.719Z,22.90
2018-12-16T20:02:16.102Z,20.00
2018-12-16T20:04:47.999Z,21.35
2018-12-16T20:07:16.911Z,23.05
2018-12-16T20:09:45.997Z,22.85
2018-12-16T20:12:16.596Z,26.10
2018-12-16T20:14:45.823Z,25.48
2018-12-16T20:17:15.060Z,25.50
2018-12-16T20:19:44.258Z,27.50
2018-12-16T20:22:13.495Z,26.85
2018-12-16T20:24:42.900Z,27.65
2018-12-16T20:27:12.215Z,27.77
2018-12-16T20:29:41.516Z,29.00
2018-12-16T20:32:10.795Z,28.02
2018-12-16T20:34:39.976Z,23.50
2018-12-16T20:37:09.235Z,25.85
2018-12-16T20:39:38.599Z,25.95
2018-12-16T20:42:07.822Z,26.77
2018-12-16T20:44:37.393Z,25.27
2018-12-16T20:47:06.642Z,26.85
2018-12-16T20:49:35.600Z,29.15
2018-12-16T20:52:05.488Z,32.40
2018-12-16T20:54:35.200Z,38.75
2018-12-16T20:57:04.440Z,36.80
2018-12-16T20:59:33.667Z,39.25
2018-12-16T21:02:02.906Z,46.73
2018-12-16T21:04:32.123Z,33.45
2018-12-16T21:07:01.229Z,34.33
2018-12-16T21:09:30.586Z,42.43
2018-12-16T21:12:01.039Z,41.42
2018-12-16T21:14:35.722Z,42.75
2018-12-16T21:17:10.569Z,40.43
2018-12-16T21:19:39.886Z,38.70
2018-12-16T21:22:12.526Z,33.45
2018-12-16T21:24:41.887Z,32.25
2018-12-16T21:27:11.751Z,28.60
2018-12-16T21:29:41.090Z,27.62
2018-12-16T21:32:10.283Z,30.75
2018-12-16T21:34:39.858Z,31.80
2018-12-16T21:37:09.379Z,31.70
2018-12-16T21:39:38.504Z,28.27
2018-12-16T21:42:07.715Z,26.50
2018-12-16T21:44:36.870Z,29.40
2018-12-16T21:47:06.126Z,32.10
2018-12-16T21:49:35.651Z,28.10
2018-12-16T21:52:05.043Z,33.78
2018-12-16T21:54:34.536Z,33.23
2018-12-16T21:57:04.163Z,35.63
2018-12-16T21:59:33.670Z,33.58
2018-12-16T22:02:03.407Z,31.70
2018-12-16T22:04:32.524Z,32.75
2018-12-16T22:07:01.648Z,33.80
2018-12-16T22:09:31.022Z,32.88
2018-12-16T22:12:00.780Z,33.02
2018-12-16T22:14:29.903Z,33.05
2018-12-16T22:16:59.034Z,29.57
2018-12-16T22:19:28.450Z,30.70
2018-12-16T22:21:57.678Z,29.85
2018-12-16T22:24:26.858Z,29.32
2018-12-16T22:26:56.058Z,29.48
2018-12-16T22:29:25.119Z,29.10
2018-12-16T22:31:54.383Z,29.25
2018-12-16T22:34:23.669Z,30.50
2018-12-16T22:36:52.872Z,30.08
2018-12-16T22:39:21.956Z,31.60
2018-12-16T22:41:51.315Z,29.90
2018-12-16T22:44:20.733Z,32.00
2018-12-16T22:46:50.019Z,33.28
2018-12-16T22:49:19.460Z,32.98
2018-12-16T22:51:48.771Z,34.08
2018-12-16T22:54:17.995Z,33.70
2018-12-16T22:56:47.428Z,42.53
2018-12-16T22:59:16.647Z,50.20
2018-12-16T23:01:46.350Z,48.40
2018-12-16T23:04:15.698Z,41.92
2018-12-16T23:06:44.822Z,39.10
2018-12-16T23:09:13.783Z,36.15
2018-12-16T23:11:43.099Z,39.05
2018-12-16T23:14:12.303Z,35.20
2018-12-16T23:16:41.650Z,35.40
2018-12-16T23:19:10.883Z,34.18
2018-12-16T23:21:40.346Z,29.30
2018-12-16T23:24:09.615Z,24.27
2018-12-16T23:26:38.957Z,21.05
2018-12-16T23:29:08.123Z,19.50
2018-12-16T23:31:37.247Z,18.20
2018-12-16T23:34:06.395Z,20.35
2018-12-16T23:36:35.587Z,20.05
2018-12-16T23:39:05.889Z,22.75
2018-12-16T23:41:35.478Z,21.62
2018-12-16T23:44:04.655Z,20.10
2018-12-16T23:46:33.981Z,20.32
2018-12-16T23:49:02.708Z,18.48
2018-12-16T23:51:31.887Z,18.00
2018-12-16T23:54:01.032Z,19.77
2018-12-16T23:56:30.510Z,25.62
2018-12-16T23:58:59.432Z,23.80
